Time;durP1;ratioP1;P1;durP2;ratioP2;P2;SDS_P1;SDS_P2;PMS_P1;PMS_P2;Temp;Humidity;BMP_temperature;BMP_pressure;BME280_temperature;BME280_humidity;BME280_pressure;Samples;Min_cycle;Max_cycle;Signal;HPM_P1;HPM_P2
2022/04/18 00:02:17;;;;;;;12.88;7.00;;;7.10;66.70;;;;;;5090533;28;20549;-78
2022/04/18 00:04:43;;;;;;;14.25;6.72;;;7.00;67.10;;;;;;5090681;28;20050;-78
2022/04/18 00:07:10;;;;;;;14.88;7.10;;;7.00;68.40;;;;;;5090543;28;20047;-78
2022/04/18 00:09:36;;;;;;;9.65;6.70;;;6.90;68.20;;;;;;5090579;28;20055;-78
2022/04/18 00:12:02;;;;;;;12.85;6.63;;;6.90;69.30;;;;;;5090110;28;20047;-78
2022/04/18 00:14:28;;;;;;;18.20;7.13;;;6.80;69.80;;;;;;5090572;28;20052;-78
2022/04/18 00:16:54;;;;;;;17.02;8.10;;;6.80;71.00;;;;;;5073805;28;20047;-79
2022/04/18 00:19:20;;;;;;;15.18;7.63;;;6.80;71.30;;;;;;5090599;28;20048;-78
2022/04/18 00:21:45;;;;;;;13.30;6.68;;;6.80;72.00;;;;;;5090047;28;20058;-78
2022/04/18 00:24:11;;;;;;;13.55;7.07;;;6.80;72.80;;;;;;5090630;28;20043;-79
2022/04/18 00:26:42;;;;;;;13.90;6.85;;;6.80;72.90;;;;;;5090237;28;20501;-80
2022/04/18 00:29:07;;;;;;;12.48;6.13;;;6.80;73.70;;;;;;5072544;28;20562;-80
2022/04/18 00:31:33;;;;;;;13.27;6.93;;;6.90;73.40;;;;;;5072422;28;20119;-80
2022/04/18 00:33:59;;;;;;;11.82;7.15;;;8.10;74.30;;;;;;5072396;28;20080;-80
2022/04/18 00:36:24;;;;;;;9.95;6.65;;;6.70;74.00;;;;;;5107412;28;20071;-80
2022/04/18 00:38:50;;;;;;;10.63;7.05;;;6.60;74.80;;;;;;5088266;28;20054;-79
2022/04/18 00:41:16;;;;;;;15.15;7.50;;;6.60;75.30;;;;;;5090026;28;20047;-80
2022/04/18 00:43:44;;;;;;;14.15;6.90;;;6.60;76.00;;;;;;5107683;28;20127;-81
2022/04/18 00:46:11;;;;;;;13.95;7.35;;;6.50;77.20;;;;;;5107387;28;20547;-80
2022/04/18 00:48:37;;;;;;;16.10;7.30;;;7.80;78.10;;;;;;5106923;28;20506;-80
2022/04/18 00:51:05;;;;;;;12.75;7.63;;;6.50;77.90;;;;;;5089635;28;20043;-79
2022/04/18 00:53:32;;;;;;;13.93;7.32;;;6.40;78.50;;;;;;5107149;28;20692;-80
2022/04/18 00:55:58;;;;;;;15.73;7.28;;;7.80;80.10;;;;;;5107412;28;20039;-80
2022/04/18 00:58:24;;;;;;;14.85;7.45;;;7.20;80.50;;;;;;5107474;28;20047;-80
2022/04/18 01:00:50;;;;;;;10.50;6.85;;;6.30;80.80;;;;;;5106987;28;20047;-79
2022/04/18 01:03:15;;;;;;;14.70;7.78;;;7.80;82.40;;;;;;5106795;28;20397;-79
2022/04/18 01:05:41;;;;;;;12.93;7.55;;;6.30;81.90;;;;;;5107010;28;20046;-80
2022/04/18 01:08:07;;;;;;;16.13;6.97;;;6.80;82.60;;;;;;5107333;28;20466;-80
2022/04/18 01:10:33;;;;;;;14.05;7.93;;;6.30;83.20;;;;;;5107395;28;20039;-80
2022/04/18 01:12:59;;;;;;;18.05;8.20;;;6.30;83.40;;;;;;5108487;28;20460;-80
2022/04/18 01:15:25;;;;;;;13.98;7.82;;;6.20;83.80;;;;;;5107748;28;20050;-79
2022/04/18 01:17:51;;;;;;;13.07;6.70;;;6.20;84.40;;;;;;5088176;28;20039;-80
2022/04/18 01:20:16;;;;;;;16.05;7.97;;;6.20;85.50;;;;;;5071273;28;20138;-80
2022/04/18 01:22:44;;;;;;;12.50;7.68;;;7.60;87.20;;;;;;5088266;28;20122;-80
2022/04/18 01:30:38;;;;;;;17.20;6.82;;;6.80;87.90;;;;;;5106459;28;20144;-80
2022/04/18 01:33:05;;;;;;;24.73;7.30;;;6.90;88.20;;;;;;5106415;28;20482;-80
2022/04/18 01:35:30;;;;;;;17.15;7.03;;;6.10;88.30;;;;;;5106293;28;20422;-80
2022/04/18 01:37:56;;;;;;;12.40;7.10;;;6.10;89.10;;;;;;5106379;28;20052;-80
2022/04/18 01:40:22;;;;;;;18.92;7.47;;;7.10;90.10;;;;;;5071400;28;20141;-79
2022/04/18 01:42:47;;;;;;;13.07;7.38;;;6.00;90.00;;;;;;5106220;28;20467;-79
2022/04/18 01:45:13;;;;;;;14.23;8.13;;;6.00;90.30;;;;;;5106821;28;20040;-79
2022/04/18 01:47:39;;;;;;;15.63;8.23;;;6.10;90.60;;;;;;5106286;28;20040;-79
2022/04/18 01:50:05;;;;;;;13.95;7.78;;;5.90;91.00;;;;;;5088460;28;20152;-79
2022/04/18 01:52:31;;;;;;;15.70;7.93;;;5.90;91.30;;;;;;5110715;28;20096;-80
2022/04/18 01:54:56;;;;;;;16.40;8.70;;;5.90;91.40;;;;;;5110658;28;20047;-80
2022/04/18 01:57:22;;;;;;;13.57;7.85;;;7.30;91.80;;;;;;5110438;28;20075;-80
2022/04/18 01:59:48;;;;;;;18.77;7.97;;;5.80;91.80;;;;;;5092448;28;20043;-80
2022/04/18 02:02:13;;;;;;;16.75;7.82;;;6.00;92.30;;;;;;5092415;28;20134;-80
2022/04/18 02:04:39;;;;;;;15.95;9.00;;;5.80;92.40;;;;;;5110384;28;20051;-80
2022/04/18 02:07:05;;;;;;;12.95;7.50;;;5.80;92.40;;;;;;5110407;28;20545;-79
2022/04/18 02:09:31;;;;;;;17.20;8.88;;;7.30;93.10;;;;;;5109705;28;20032;-80
2022/04/18 02:11:56;;;;;;;16.40;8.07;;;7.10;93.30;;;;;;5110227;28;20047;-80
2022/04/18 02:14:22;;;;;;;15.55;8.43;;;5.70;93.10;;;;;;5109870;28;20054;-80
2022/04/18 02:16:48;;;;;;;17.48;8.77;;;5.70;93.30;;;;;;5110645;28;20051;-80
2022/04/18 02:19:13;;;;;;;17.95;8.40;;;5.60;93.40;;;;;;5111419;28;20040;-80
2022/04/18 02:21:39;;;;;;;20.70;8.77;;;5.60;93.80;;;;;;5110391;28;20483;-80
2022/04/18 02:24:05;;;;;;;16.85;9.05;;;7.00;94.50;;;;;;5110339;28;20403;-79
2022/04/18 02:26:30;;;;;;;18.63;9.82;;;5.60;94.30;;;;;;5109722;28;20104;-79
2022/04/18 02:28:56;;;;;;;19.00;10.02;;;5.60;94.50;;;;;;5110034;28;20040;-79
2022/04/18 02:31:22;;;;;;;15.02;8.68;;;5.60;94.70;;;;;;5109834;28;20043;-79
2022/04/18 02:33:47;;;;;;;18.63;9.55;;;7.00;95.20;;;;;;5109701;28;20126;-79
2022/04/18 02:36:13;;;;;;;17.77;8.40;;;5.90;95.00;;;;;;5110080;28;20073;-79
2022/04/18 02:38:38;;;;;;;16.52;8.70;;;5.50;95.00;;;;;;5109777;28;20043;-80
2022/04/18 02:41:04;;;;;;;13.98;8.32;;;7.00;95.70;;;;;;5091849;28;20052;-80
2022/04/18 02:43:30;;;;;;;22.38;9.00;;;5.50;95.50;;;;;;5109697;28;20128;-79
2022/04/18 02:45:55;;;;;;;19.27;8.77;;;6.30;95.90;;;;;;5090979;28;20047;-80
2022/04/18 02:48:21;;;;;;;15.02;8.85;;;5.40;95.80;;;;;;5109461;28;20042;-80
2022/04/18 02:50:47;;;;;;;19.92;8.30;;;5.40;96.10;;;;;;5109713;28;20071;-79
2022/04/18 02:53:12;;;;;;;19.02;8.73;;;5.40;96.20;;;;;;5091629;28;20513;-80
2022/04/18 02:55:38;;;;;;;17.65;8.85;;;6.90;96.90;;;;;;5091183;28;20493;-80
2022/04/18 02:58:04;;;;;;;15.13;8.68;;;6.00;96.90;;;;;;5109936;28;20043;-80
2022/04/18 03:00:30;;;;;;;16.35;9.13;;;6.70;97.20;;;;;;5108992;28;20134;-80
2022/04/18 03:02:55;;;;;;;16.42;8.75;;;6.70;97.30;;;;;;5108872;28;20043;-80
2022/04/18 03:05:21;;;;;;;13.57;8.25;;;6.70;97.30;;;;;;5109389;28;20478;-80
2022/04/18 03:07:47;;;;;;;16.23;8.65;;;5.30;97.00;;;;;;5109246;28;20230;-80
2022/04/18 03:10:12;;;;;;;16.83;8.82;;;6.00;97.40;;;;;;5109295;28;20047;-80
2022/04/18 03:12:39;;;;;;;19.48;8.48;;;5.60;97.40;;;;;;5109211;28;20039;-80
2022/04/18 03:15:05;;;;;;;15.30;8.23;;;6.10;97.50;;;;;;5109484;28;20035;-80
2022/04/18 03:17:31;;;;;;;17.88;8.60;;;5.20;97.40;;;;;;5108936;28;20437;-80
2022/04/18 03:19:57;;;;;;;15.57;7.97;;;5.20;97.60;;;;;;5108972;28;20133;-80
2022/04/18 03:22:24;;;;;;;15.85;8.55;;;5.20;97.70;;;;;;5090648;28;20035;-80
2022/04/18 03:24:49;;;;;;;16.10;8.95;;;5.20;97.70;;;;;;5109143;28;20043;-80
2022/04/18 03:27:15;;;;;;;17.65;9.05;;;5.20;97.90;;;;;;5090609;28;20047;-80
2022/04/18 03:29:41;;;;;;;13.98;7.28;;;6.50;98.30;;;;;;5109135;28;20043;-80
2022/04/18 03:32:07;;;;;;;18.65;7.70;;;6.70;98.40;;;;;;5109030;28;20384;-80
2022/04/18 03:34:33;;;;;;;11.40;7.57;;;5.10;98.00;;;;;;5108627;28;20070;-80
2022/04/18 03:39:52;;;;;;;12.95;7.63;;;5.00;98.40;;;;;;5107842;28;20062;-79
2022/04/18 03:42:32;;;;;;;16.77;8.32;;;6.50;98.80;;;;;;5108800;28;20052;-79
2022/04/18 03:45:03;;;;;;;14.82;7.93;;;5.10;99.70;;;;;;5108476;28;20039;-80
2022/04/18 03:47:30;;;;;;;15.25;7.72;;;5.10;99.20;;;;;;5108210;28;20089;-80
2022/04/18 03:49:58;;;;;;;16.27;7.82;;;5.80;99.20;;;;;;5108428;28;20043;-78
2022/04/18 03:52:24;;;;;;;13.50;7.80;;;5.10;99.10;;;;;;5090512;28;20054;-80
2022/04/18 03:54:51;;;;;;;13.52;7.25;;;6.10;99.50;;;;;;5108695;28;20087;-80
2022/04/18 03:57:16;;;;;;;14.82;7.57;;;6.10;99.50;;;;;;5090534;28;20394;-80
2022/04/18 03:59:42;;;;;;;15.02;8.63;;;5.50;99.30;;;;;;5089388;28;20043;-81
2022/04/18 04:02:08;;;;;;;16.25;8.00;;;5.00;99.40;;;;;;5108336;28;20054;-80
2022/04/18 04:04:35;;;;;;;21.60;7.07;;;5.00;99.60;;;;;;5089325;28;20131;-80
2022/04/18 04:07:00;;;;;;;16.50;8.45;;;5.00;99.40;;;;;;5089903;28;20443;-81
2022/04/18 04:09:26;;;;;;;13.95;7.80;;;5.00;99.40;;;;;;5108677;28;20403;-80
2022/04/18 04:11:52;;;;;;;14.65;7.35;;;4.90;99.50;;;;;;5089619;28;20052;-80
2022/04/18 04:14:20;;;;;;;16.98;7.93;;;6.30;99.90;;;;;;5107537;28;20042;-80
2022/04/18 04:16:45;;;;;;;16.38;8.02;;;5.20;99.60;;;;;;5107875;28;20047;-80
2022/04/18 04:19:11;;;;;;;15.68;7.75;;;4.80;99.70;;;;;;5108364;28;20066;-80
2022/04/18 04:21:37;;;;;;;14.15;8.23;;;4.80;99.90;;;;;;5107523;28;20078;-80
2022/04/18 04:24:03;;;;;;;12.23;7.13;;;6.00;99.90;;;;;;5089502;28;20040;-80
2022/04/18 04:26:29;;;;;;;14.48;7.20;;;4.80;99.90;;;;;;5089566;28;20074;-81
2022/04/18 04:28:55;;;;;;;13.18;7.32;;;4.80;99.90;;;;;;5108015;28;20364;-80
2022/04/18 04:31:21;;;;;;;14.95;7.78;;;4.70;99.90;;;;;;5107803;28;20046;-80
2022/04/18 04:33:46;;;;;;;12.98;7.25;;;6.00;99.90;;;;;;5107575;28;20059;-80
2022/04/18 04:36:12;;;;;;;14.48;7.97;;;4.70;99.90;;;;;;5107894;28;20034;-79
2022/04/18 04:38:38;;;;;;;15.18;7.53;;;4.80;99.90;;;;;;5107182;28;20694;-80
2022/04/18 04:41:04;;;;;;;12.57;7.07;;;5.10;99.90;;;;;;5107626;28;20412;-80
2022/04/18 04:43:29;;;;;;;15.52;7.38;;;6.10;99.90;;;;;;5088823;28;20040;-80
2022/04/18 04:45:56;;;;;;;14.77;6.93;;;4.80;99.90;;;;;;5089334;28;20046;-80
2022/04/18 04:48:25;;;;;;;13.95;7.75;;;4.80;99.90;;;;;;5089341;28;20050;-79
2022/04/18 04:50:50;;;;;;;15.27;6.90;;;4.80;99.90;;;;;;5107085;28;20040;-80
2022/04/18 04:53:16;;;;;;;12.98;7.45;;;5.70;99.90;;;;;;5089441;28;20032;-80
2022/04/18 04:55:42;;;;;;;15.07;8.07;;;4.90;99.90;;;;;;5107207;28;20050;-80
2022/04/18 04:58:09;;;;;;;12.48;6.50;;;4.90;99.90;;;;;;5107304;28;20040;-80
2022/04/18 05:00:35;;;;;;;11.38;6.78;;;6.40;99.90;;;;;;5106975;28;20051;-80
2022/04/18 05:03:01;;;;;;;11.25;6.35;;;5.10;99.90;;;;;;5107058;28;20043;-80
2022/04/18 05:05:27;;;;;;;15.07;7.05;;;5.90;99.90;;;;;;5107707;28;20137;-80
2022/04/18 05:07:53;;;;;;;11.23;7.10;;;6.60;99.90;;;;;;5089260;28;20394;-80
2022/04/18 05:10:19;;;;;;;11.05;7.13;;;6.00;99.90;;;;;;5107111;28;20040;-79
2022/04/18 05:12:44;;;;;;;12.55;6.93;;;5.30;99.90;;;;;;5087851;28;20081;-79
2022/04/18 05:15:10;;;;;;;11.60;6.70;;;5.30;99.90;;;;;;5088280;28;20126;-80
2022/04/18 05:17:36;;;;;;;14.82;7.95;;;5.30;99.90;;;;;;5071637;28;20052;-79
2022/04/18 05:20:04;;;;;;;15.90;7.30;;;5.40;99.90;;;;;;5071464;28;20093;-79
2022/04/18 05:22:30;;;;;;;14.07;7.75;;;5.40;99.90;;;;;;5088839;28;20556;-79
2022/04/18 05:24:56;;;;;;;14.90;7.53;;;5.50;99.90;;;;;;5108805;28;20051;-78
2022/04/18 05:27:23;;;;;;;11.02;6.78;;;6.70;99.90;;;;;;5108854;28;20130;-80
2022/04/18 05:29:50;;;;;;;14.68;7.05;;;6.70;99.90;;;;;;5088841;28;20114;-80
2022/04/18 05:32:16;;;;;;;13.18;6.95;;;5.70;99.90;;;;;;5088642;28;20043;-80
2022/04/18 05:34:42;;;;;;;11.98;7.53;;;5.80;99.90;;;;;;5106328;28;20517;-80
2022/04/18 05:37:08;;;;;;;15.40;7.57;;;7.30;99.90;;;;;;5087963;28;20055;-80
2022/04/18 05:39:34;;;;;;;15.85;7.97;;;7.50;99.90;;;;;;5090015;28;20048;-80
2022/04/18 05:42:00;;;;;;;10.90;6.45;;;6.20;99.90;;;;;;5086105;28;20080;-80
2022/04/18 05:44:26;;;;;;;13.77;7.15;;;6.30;99.90;;;;;;5085446;28;20186;-80
2022/04/18 05:46:52;;;;;;;15.25;6.85;;;6.70;99.90;;;;;;5086033;28;20520;-80
2022/04/18 05:49:18;;;;;;;11.48;6.40;;;7.30;99.90;;;;;;5084700;28;20458;-79
2022/04/18 05:51:44;;;;;;;10.02;6.10;;;6.50;99.90;;;;;;5086165;28;20044;-80
2022/04/18 05:54:10;;;;;;;11.50;6.78;;;6.70;99.90;;;;;;5084773;28;20269;-80
2022/04/18 05:56:36;;;;;;;11.30;6.68;;;6.80;99.90;;;;;;5085077;28;20040;-80
2022/04/18 05:59:03;;;;;;;11.48;6.50;;;8.10;99.90;;;;;;5085743;28;20044;-80
2022/04/18 06:01:31;;;;;;;10.45;6.15;;;8.30;99.90;;;;;;5086105;28;20040;-79
2022/04/18 06:03:57;;;;;;;10.15;6.00;;;7.20;99.70;;;;;;5085613;28;20032;-80
2022/04/18 06:06:23;;;;;;;13.23;6.93;;;7.70;99.40;;;;;;5086106;28;20094;-80
2022/04/18 06:08:48;;;;;;;9.93;5.80;;;7.40;99.00;;;;;;5084415;28;20036;-79
2022/04/18 06:11:14;;;;;;;9.23;4.93;;;8.00;98.70;;;;;;5085798;28;20047;-79
2022/04/18 06:13:41;;;;;;;12.15;6.82;;;8.90;98.50;;;;;;5086144;28;20123;-79
2022/04/18 06:16:07;;;;;;;11.02;6.10;;;7.80;97.60;;;;;;5085674;28;20048;-79
2022/04/18 06:18:33;;;;;;;11.57;6.25;;;9.00;97.50;;;;;;5086503;28;20067;-79
2022/04/18 06:20:59;;;;;;;14.15;5.93;;;8.50;96.60;;;;;;5084813;28;20048;-79
2022/04/18 06:23:25;;;;;;;8.75;5.38;;;8.20;96.00;;;;;;5086785;28;20555;-79
2022/04/18 06:25:51;;;;;;;11.52;6.57;;;8.30;95.60;;;;;;5086430;28;20058;-78
2022/04/18 06:28:19;;;;;;;12.65;5.72;;;8.40;95.10;;;;;;5086805;28;20040;-77
2022/04/18 06:30:44;;;;;;;15.00;5.93;;;8.90;94.80;;;;;;5085501;28;20048;-78
2022/04/18 06:33:11;;;;;;;8.25;5.57;;;8.70;94.40;;;;;;5068578;28;20411;-78
2022/04/18 06:35:37;;;;;;;14.25;5.78;;;8.80;94.00;;;;;;5086833;28;20483;-79
2022/04/18 06:38:03;;;;;;;8.90;5.40;;;9.90;93.80;;;;;;5093439;28;20090;-80
2022/04/18 06:40:28;;;;;;;8.65;5.60;;;9.10;93.30;;;;;;5092029;28;20130;-77
2022/04/18 06:42:54;;;;;;;9.15;5.55;;;9.10;92.50;;;;;;5110475;28;20077;-79
2022/04/18 06:45:20;;;;;;;11.82;5.72;;;9.30;92.10;;;;;;5074743;28;20130;-77
2022/04/18 06:47:45;;;;;;;10.07;5.47;;;10.20;92.10;;;;;;5111082;28;20086;-78
2022/04/18 06:50:12;;;;;;;10.52;5.72;;;9.70;91.90;;;;;;5110388;28;20077;-78
2022/04/18 06:52:44;;;;;;;9.15;5.53;;;9.60;91.50;;;;;;5076048;28;20230;-78
2022/04/18 06:55:10;;;;;;;9.60;5.63;;;9.90;91.40;;;;;;5074858;28;20054;-79
2022/04/18 06:57:36;;;;;;;11.52;5.38;;;9.80;91.20;;;;;;5075780;28;20040;-78
2022/04/18 07:00:05;;;;;;;13.05;6.25;;;10.00;90.80;;;;;;5075436;28;20045;-79
2022/04/18 07:02:32;;;;;;;10.32;6.18;;;10.10;89.20;;;;;;5091158;28;20240;-79
2022/04/18 07:04:57;;;;;;;9.07;5.13;;;10.20;88.20;;;;;;5092235;28;20062;-79
2022/04/18 07:07:23;;;;;;;10.55;5.57;;;10.30;87.00;;;;;;5091789;28;20032;-80
2022/04/18 07:09:49;;;;;;;8.98;5.20;;;10.80;85.80;;;;;;5110345;28;20608;-78
2022/04/18 07:12:19;;;;;;;8.73;5.40;;;10.60;84.60;;;;;;5110133;28;20067;-79
2022/04/18 07:14:44;;;;;;;10.13;5.55;;;10.50;83.40;;;;;;5091278;28;20047;-80
2022/04/18 07:17:10;;;;;;;8.23;5.47;;;10.60;81.90;;;;;;5091552;28;20051;-78
2022/04/18 07:19:36;;;;;;;14.88;5.80;;;11.00;82.10;;;;;;5074381;28;20039;-79
2022/04/18 07:22:02;;;;;;;9.32;5.88;;;10.30;81.30;;;;;;5090945;28;20047;-79
2022/04/18 07:24:28;;;;;;;12.15;6.22;;;10.70;80.80;;;;;;5108811;28;20128;-81
2022/04/18 07:26:54;;;;;;;11.15;5.97;;;10.80;80.90;;;;;;5091261;28;20105;-80
2022/04/18 07:29:19;;;;;;;11.05;5.88;;;10.90;81.10;;;;;;5108980;28;20031;-79
2022/04/18 07:31:45;;;;;;;9.25;5.82;;;11.80;81.30;;;;;;5109386;28;20391;-82
2022/04/18 07:34:10;;;;;;;11.10;5.70;;;11.90;81.50;;;;;;5108894;28;20043;-80
2022/04/18 07:36:36;;;;;;;9.57;5.38;;;12.40;81.80;;;;;;5108531;28;20044;-80
2022/04/18 07:39:02;;;;;;;10.88;5.95;;;11.30;80.80;;;;;;5090455;28;20062;-80
2022/04/18 07:41:29;;;;;;;9.25;6.10;;;11.50;80.70;;;;;;5089780;28;20487;-78
2022/04/18 07:43:57;;;;;;;8.88;5.50;;;11.60;80.00;;;;;;5109145;28;20131;-78
2022/04/18 07:46:23;;;;;;;12.13;5.43;;;11.70;79.10;;;;;;5108231;28;20075;-78
2022/04/18 07:48:50;;;;;;;12.25;5.97;;;12.60;79.30;;;;;;5107247;28;20074;-79
2022/04/18 07:51:34;;;;;;;8.68;5.53;;;12.60;79.10;;;;;;5073457;28;20093;-78
2022/04/18 07:54:02;;;;;;;8.48;5.60;;;12.00;76.40;;;;;;5090030;28;20067;-79
2022/04/18 07:56:28;;;;;;;8.95;5.72;;;12.20;75.20;;;;;;5108751;28;20054;-78
2022/04/18 07:58:54;;;;;;;9.20;5.15;;;12.10;73.40;;;;;;5108035;28;20055;-79
2022/04/18 08:01:21;;;;;;;9.00;5.72;;;12.60;72.80;;;;;;5108337;28;20043;-79
2022/04/18 08:03:47;;;;;;;18.17;5.55;;;12.60;73.00;;;;;;5108150;28;20043;-79
2022/04/18 08:06:14;;;;;;;11.00;5.72;;;12.50;72.20;;;;;;5090435;28;20044;-80
2022/04/18 08:08:40;;;;;;;9.88;5.30;;;12.60;70.50;;;;;;5090204;28;20134;-77
2022/04/18 08:11:11;;;;;;;10.57;5.60;;;12.70;69.80;;;;;;5108390;28;20561;-76
2022/04/18 08:13:41;;;;;;;10.43;5.07;;;12.80;69.70;;;;;;5090901;28;20551;-79
2022/04/18 08:16:07;;;;;;;9.13;5.82;;;12.90;69.10;;;;;;5108814;28;20047;-76
2022/04/18 08:18:36;;;;;;;9.93;5.70;;;13.00;67.80;;;;;;5090705;28;20043;-76
2022/04/18 08:21:03;;;;;;;8.20;4.88;;;13.30;66.40;;;;;;5090572;28;20054;-77
2022/04/18 08:23:30;;;;;;;10.93;5.80;;;13.60;64.20;;;;;;5108307;28;20038;-76
2022/04/18 08:25:55;;;;;;;8.93;4.95;;;13.80;63.30;;;;;;5109253;28;20092;-76
2022/04/18 08:28:22;;;;;;;9.25;5.05;;;14.10;61.80;;;;;;5073318;28;20114;-76
2022/04/18 08:30:48;;;;;;;12.93;6.03;;;14.30;60.70;;;;;;5074800;28;20042;-75
2022/04/18 08:33:14;;;;;;;9.90;5.40;;;14.40;60.50;;;;;;5108745;28;20035;-75
2022/04/18 08:35:40;;;;;;;8.40;4.65;;;14.50;60.30;;;;;;5057282;28;20048;-76
2022/04/18 08:38:05;;;;;;;8.52;4.60;;;14.60;59.20;;;;;;5108191;28;20154;-76
2022/04/18 08:40:34;;;;;;;6.80;4.70;;;14.70;58.80;;;;;;5072582;28;20039;-75
2022/04/18 08:42:59;;;;;;;7.68;5.15;;;14.80;58.20;;;;;;5108382;28;20451;-75
2022/04/18 08:45:26;;;;;;;10.13;5.30;;;14.90;58.80;;;;;;5089851;28;20050;-76
2022/04/18 08:53:26;;;;;;;8.05;5.05;;;15.30;57.60;;;;;;5107896;28;20101;-77
2022/04/18 08:55:53;;;;;;;8.95;5.15;;;15.50;57.50;;;;;;5089923;28;20058;-74
2022/04/18 08:58:20;;;;;;;8.98;6.18;;;15.60;57.30;;;;;;5088972;28;20483;-75
2022/04/18 09:00:46;;;;;;;7.70;5.22;;;15.70;56.80;;;;;;5073013;28;20142;-77
2022/04/18 09:03:12;;;;;;;7.13;4.88;;;15.80;56.00;;;;;;5072957;28;20071;-76
2022/04/18 09:05:39;;;;;;;10.60;5.22;;;15.80;56.10;;;;;;5108101;28;20044;-76
2022/04/18 09:08:07;;;;;;;8.57;4.95;;;15.80;56.20;;;;;;5089791;28;20735;-76
2022/04/18 09:10:40;;;;;;;8.35;5.55;;;15.80;55.70;;;;;;5089665;28;20048;-75
2022/04/18 09:13:13;;;;;;;7.93;4.40;;;15.80;56.30;;;;;;5073719;28;20105;-76
2022/04/18 09:15:41;;;;;;;10.27;5.25;;;15.80;56.80;;;;;;5072125;28;20085;-75
2022/04/18 09:18:10;;;;;;;8.38;5.45;;;15.80;56.10;;;;;;5072554;28;20039;-76
2022/04/18 09:20:53;;;;;;;10.15;5.47;;;15.90;56.50;;;;;;5107533;28;20035;-76
2022/04/18 09:23:28;;;;;;;6.72;4.07;;;15.90;56.10;;;;;;5072319;28;20075;-76
2022/04/18 09:26:09;;;;;;;6.90;4.63;;;16.00;55.90;;;;;;5089799;28;20048;-76
2022/04/18 09:28:38;;;;;;;7.35;5.40;;;16.20;55.20;;;;;;5088822;28;20048;-75
2022/04/18 09:31:09;;;;;;;6.95;4.60;;;16.30;55.70;;;;;;5089443;28;20130;-75
2022/04/18 09:33:37;;;;;;;6.93;5.00;;;16.50;54.90;;;;;;5107581;28;20044;-75
2022/04/18 09:36:23;;;;;;;7.38;5.00;;;16.60;53.80;;;;;;5088517;28;20051;-75
2022/04/18 09:38:48;;;;;;;7.68;4.80;;;16.80;51.10;;;;;;5089218;28;20051;-76
2022/04/18 09:41:16;;;;;;;8.13;5.03;;;17.00;53.70;;;;;;5088651;28;20562;-75
2022/04/18 09:43:47;;;;;;;9.82;5.53;;;17.20;53.10;;;;;;5089572;28;20402;-75
2022/04/18 09:46:14;;;;;;;11.73;5.20;;;17.40;52.80;;;;;;5072470;28;20043;-76
2022/04/18 09:48:42;;;;;;;10.68;4.95;;;17.70;52.00;;;;;;5088536;28;20036;-75
2022/04/18 09:51:09;;;;;;;7.90;4.75;;;17.70;51.80;;;;;;5072534;28;20050;-76
2022/04/18 09:53:37;;;;;;;9.02;4.53;;;17.80;51.90;;;;;;5088464;28;20074;-75
2022/04/18 09:56:03;;;;;;;9.18;4.85;;;17.90;51.40;;;;;;5089702;28;20043;-76
2022/04/18 09:58:32;;;;;;;7.97;4.07;;;17.90;50.80;;;;;;5107302;28;20048;-77
2022/04/18 10:01:02;;;;;;;6.88;4.30;;;17.90;50.70;;;;;;5089376;28;20051;-75
2022/04/18 10:03:28;;;;;;;12.32;4.70;;;18.00;50.50;;;;;;5107306;28;20036;-76
2022/04/18 10:05:55;;;;;;;8.00;4.70;;;18.00;50.60;;;;;;5072283;28;20048;-75
2022/04/18 10:08:21;;;;;;;5.60;4.15;;;18.00;50.30;;;;;;5107472;28;20134;-80
2022/04/18 10:10:49;;;;;;;6.68;4.35;;;18.10;50.10;;;;;;5089033;28;20043;-79
2022/04/18 10:13:15;;;;;;;7.20;4.30;;;18.20;49.90;;;;;;5059844;28;20051;-76
2022/04/18 10:15:41;;;;;;;9.75;5.03;;;18.20;49.80;;;;;;5110778;28;20106;-78
2022/04/18 10:18:08;;;;;;;7.70;4.35;;;18.30;50.00;;;;;;5075774;28;20119;-77
2022/04/18 10:20:55;;;;;;;7.43;4.47;;;18.50;50.00;;;;;;5075485;28;20042;-77
2022/04/18 10:23:52;;;;;;;8.60;5.38;;;18.50;48.60;;;;;;5110922;28;20200;-77
2022/04/18 10:26:51;;;;;;;4.60;3.47;;;18.70;48.80;;;;;;5093317;28;20047;-77
2022/04/18 10:29:45;;;;;;;6.13;4.43;;;18.70;48.50;;;;;;5110911;28;20098;-79
2022/04/18 10:32:18;;;;;;;6.80;4.30;;;18.90;48.40;;;;;;5109279;28;20391;-80
2022/04/18 10:34:48;;;;;;;;;;;19.00;48.70;;;;;;5093343;28;20046;-76
2022/04/18 10:37:16;;;;;;;6.18;4.07;;;19.10;45.70;;;;;;5110806;28;20324;-76
2022/04/18 10:39:41;;;;;;;8.50;3.58;;;19.10;48.50;;;;;;5110073;28;20059;-77
2022/04/18 10:42:22;;;;;;;7.00;3.70;;;19.20;47.30;;;;;;5074835;28;20048;-77
2022/04/18 10:45:00;;;;;;;10.88;3.65;;;19.30;46.40;;;;;;5075265;28;20359;-77
2022/04/18 10:47:48;;;;;;;4.65;2.90;;;19.50;45.70;;;;;;5111399;28;20401;-76
2022/04/18 10:50:20;;;;;;;5.05;3.45;;;19.50;46.20;;;;;;5091492;28;20039;-76
2022/04/18 10:53:11;;;;;;;3.70;2.85;;;19.60;44.90;;;;;;5091669;28;20059;-76
2022/04/18 10:55:39;;;;;;;3.58;2.47;;;19.60;43.70;;;;;;5111064;28;20372;-77
2022/04/18 10:58:11;;;;;;;3.05;1.70;;;19.80;45.20;;;;;;5109965;28;20414;-76
2022/04/18 11:00:51;;;;;;;4.10;2.25;;;19.90;43.10;;;;;;5110798;28;20044;-75
2022/04/18 11:03:40;;;;;;;6.72;2.00;;;20.10;42.20;;;;;;5091922;28;20770;-75
2022/04/18 11:06:22;;;;;;;1.95;1.50;;;20.10;38.10;;;;;;5109727;28;20035;-76
2022/04/18 11:09:08;;;;;;;1.58;1.20;;;20.00;40.40;;;;;;5074839;28;20108;-77
2022/04/18 11:11:46;;;;;;;2.28;1.50;;;19.90;37.90;;;;;;5091788;28;20043;-75
2022/04/18 11:14:14;;;;;;;3.50;2.30;;;20.10;38.70;;;;;;5091694;28;20494;-76
2022/04/18 11:16:42;;;;;;;2.72;2.03;;;20.20;39.40;;;;;;5110466;28;20047;-75
2022/04/18 11:19:14;;;;;;;3.83;2.35;;;20.30;39.50;;;;;;5091241;28;20047;-76
2022/04/18 11:21:59;;;;;;;3.83;2.35;;;20.40;39.30;;;;;;5075146;28;20421;-76
2022/04/18 11:24:54;;;;;;;4.40;2.17;;;20.50;36.80;;;;;;5091072;28;20059;-76
2022/04/18 11:27:31;;;;;;;3.83;2.30;;;20.50;38.80;;;;;;5090769;28;20047;-76
2022/04/18 11:30:13;;;;;;;4.40;2.70;;;20.60;38.80;;;;;;5074918;28;20044;-76
2022/04/18 11:32:44;;;;;;;5.32;2.10;;;20.70;38.50;;;;;;5091064;28;20124;-75
2022/04/18 11:35:12;;;;;;;3.83;1.80;;;20.80;39.60;;;;;;5090919;28;20051;-74
2022/04/18 11:37:40;;;;;;;2.70;1.70;;;20.90;38.90;;;;;;5109223;28;20044;-74
2022/04/18 11:40:14;;;;;;;4.45;2.47;;;21.00;39.00;;;;;;5108984;28;20070;-74
2022/04/18 11:42:41;;;;;;;2.83;2.10;;;21.20;38.10;;;;;;5109884;28;20157;-75
2022/04/18 11:45:09;;;;;;;4.60;2.38;;;21.40;38.90;;;;;;5109197;28;20107;-74
2022/04/18 11:47:44;;;;;;;3.70;2.45;;;21.40;38.40;;;;;;5109962;28;20042;-75
2022/04/18 11:50:10;;;;;;;3.65;2.50;;;21.40;37.00;;;;;;5090885;28;20059;-75
2022/04/18 11:52:39;;;;;;;3.67;2.40;;;21.40;37.90;;;;;;5090482;28;20043;-75
2022/04/18 11:55:06;;;;;;;5.30;2.75;;;21.40;38.40;;;;;;5074213;28;20149;-75
2022/04/18 11:57:34;;;;;;;4.63;2.85;;;21.40;37.90;;;;;;5090103;28;20044;-73
2022/04/18 12:00:01;;;;;;;5.25;3.10;;;21.50;37.60;;;;;;5091437;28;20048;-75
2022/04/18 12:08:00;;;;;;;3.55;2.78;;;21.40;37.30;;;;;;5091345;28;20171;-74
2022/04/18 12:10:28;;;;;;;5.05;2.47;;;21.40;37.90;;;;;;5090323;28;20047;-74
2022/04/18 12:12:55;;;;;;;4.97;2.92;;;21.50;37.00;;;;;;5091415;28;20044;-74
2022/04/18 12:15:25;;;;;;;3.85;2.88;;;21.50;37.60;;;;;;5072983;28;20526;-74
2022/04/18 12:17:53;;;;;;;5.75;2.90;;;21.60;37.40;;;;;;5073887;28;20043;-75
2022/04/18 12:20:26;;;;;;;7.45;2.40;;;21.70;37.50;;;;;;5089900;28;20055;-74
2022/04/18 12:22:58;;;;;;;4.95;2.33;;;21.90;37.30;;;;;;5090237;28;20140;-75
2022/04/18 12:25:25;;;;;;;;;;;22.00;36.50;;;;;;5074561;28;20050;-75
2022/04/18 12:27:51;;;;;;;7.55;2.80;;;22.10;35.30;;;;;;5090138;28;19990;-75
2022/04/18 12:30:17;;;;;;;4.25;2.80;;;22.10;36.80;;;;;;5057450;28;20043;-75
2022/04/18 12:32:47;;;;;;;2.88;2.15;;;22.10;36.10;;;;;;5089918;28;20482;-75
2022/04/18 12:35:15;;;;;;;5.20;2.78;;;22.20;36.40;;;;;;5072772;28;20100;-74
2022/04/18 12:37:47;;;;;;;5.70;2.88;;;22.30;36.40;;;;;;5073339;28;20051;-74
2022/04/18 12:40:15;;;;;;;4.70;2.55;;;22.40;35.40;;;;;;5089233;28;20087;-74
2022/04/18 12:42:51;;;;;;;3.40;2.47;;;22.40;35.40;;;;;;5090837;28;20407;-75
2022/04/18 12:45:17;;;;;;;4.05;2.45;;;22.50;35.30;;;;;;5072792;28;20040;-75
2022/04/18 12:47:43;;;;;;;3.45;2.55;;;22.50;35.50;;;;;;5056276;28;20040;-74
2022/04/18 12:50:15;;;;;;;4.05;2.50;;;22.50;35.10;;;;;;5072681;28;20050;-74
2022/04/18 12:52:49;;;;;;;;;;;22.60;34.80;;;;;;5090135;28;20492;-74
2022/04/18 12:55:15;;;;;;;3.97;2.50;;;22.60;34.70;;;;;;5073244;28;19966;-74
2022/04/18 12:57:47;;;;;;;3.03;2.42;;;22.80;35.90;;;;;;5089577;28;20051;-74
2022/04/18 13:00:17;;;;;;;2.83;2.15;;;22.90;34.80;;;;;;5108436;28;20047;-74
2022/04/18 13:03:01;;;;;;;4.57;2.05;;;22.90;35.30;;;;;;5089676;28;20509;-74
2022/04/18 13:05:31;;;;;;;3.00;2.00;;;22.90;35.20;;;;;;5107815;28;20044;-74
2022/04/18 13:08:05;;;;;;;4.35;2.10;;;23.00;35.10;;;;;;5108661;28;20047;-75
2022/04/18 13:10:32;;;;;;;4.20;2.35;;;23.00;35.10;;;;;;5107837;28;20094;-75
2022/04/18 13:13:03;;;;;;;6.97;2.60;;;23.10;35.10;;;;;;5108270;28;20040;-75